createdAt,value
2019-05-11T00:02:24.766Z,100879.68
2019-05-11T00:07:29.239Z,100872.14
2019-05-11T00:12:33.581Z,100887.55
2019-05-11T00:17:37.614Z,100870.28
2019-05-11T00:22:41.663Z,100867.20
2019-05-11T00:27:45.721Z,100869.30
2019-05-11T00:32:49.741Z,100863.23
2019-05-11T00:37:53.898Z,100858.39
2019-05-11T00:42:58.004Z,100851.72
2019-05-11T00:48:02.021Z,100851.62
2019-05-11T00:53:06.061Z,100847.02
2019-05-11T00:58:10.167Z,100837.37
2019-05-11T01:03:14.203Z,100831.80
2019-05-11T01:08:18.238Z,100821.69
2019-05-11T01:13:22.287Z,100821.94
2019-05-11T01:18:26.327Z,100807.97
2019-05-11T01:23:30.352Z,100810.66
2019-05-11T01:28:34.426Z,100827.75
2019-05-11T01:33:38.485Z,100834.59
2019-05-11T01:38:42.507Z,100831.35
2019-05-11T01:43:47.320Z,100836.67
2019-05-11T01:48:51.629Z,100829.97
2019-05-11T01:53:55.752Z,100812.30
2019-05-11T01:58:59.788Z,100806.58
2019-05-11T02:04:03.967Z,100804.25
2019-05-11T02:09:08.536Z,100812.55
2019-05-11T02:14:13.024Z,100795.30
2019-05-11T02:19:17.040Z,100777.25
2019-05-11T02:24:21.209Z,100781.00
2019-05-11T02:29:25.258Z,100785.06
2019-05-11T02:34:29.658Z,100793.31
2019-05-11T02:39:33.966Z,100797.48
2019-05-11T02:44:38.403Z,100788.66
2019-05-11T02:49:42.493Z,100794.16
2019-05-11T02:54:47.844Z,100815.16
2019-05-11T02:59:52.423Z,100810.75
2019-05-11T03:04:56.611Z,100814.52
2019-05-11T03:10:00.708Z,100819.13
2019-05-11T03:15:05.300Z,100824.73
2019-05-11T03:20:09.386Z,100825.83
2019-05-11T03:25:13.479Z,100831.97
2019-05-11T03:30:17.665Z,100823.55
2019-05-11T03:35:21.746Z,100821.09
2019-05-11T03:40:25.844Z,100822.75
2019-05-11T03:45:29.924Z,100811.17
2019-05-11T03:50:33.988Z,100809.23
2019-05-11T03:55:38.321Z,100810.47
2019-05-11T04:00:42.408Z,100817.83
2019-05-11T04:05:46.467Z,100824.59
2019-05-11T04:10:50.655Z,100831.56
2019-05-11T04:15:54.738Z,100829.81
2019-05-11T04:20:58.874Z,100833.16
2019-05-11T04:26:02.987Z,100841.90
2019-05-11T04:31:07.020Z,100832.67
2019-05-11T04:36:11.079Z,100835.34
2019-05-11T04:41:15.238Z,100834.38
2019-05-11T04:46:19.261Z,100824.11
2019-05-11T04:51:23.328Z,100822.92
2019-05-11T04:56:27.759Z,100824.70
2019-05-11T05:01:31.770Z,100821.80
2019-05-11T05:06:38.834Z,100813.41
2019-05-11T05:11:41.641Z,100813.41
2019-05-11T05:16:45.687Z,100812.69
2019-05-11T05:21:50.005Z,100817.98
2019-05-11T05:26:54.019Z,100813.42
2019-05-11T05:31:58.005Z,100807.64
2019-05-11T05:37:02.001Z,100809.98
2019-05-11T05:42:06.085Z,100809.53
2019-05-11T05:47:10.106Z,100816.06
2019-05-11T05:52:14.121Z,100815.12
2019-05-11T05:57:18.243Z,100821.10
2019-05-11T06:02:22.765Z,100817.59
2019-05-11T06:07:26.751Z,100808.09
2019-05-11T06:12:30.769Z,100800.31
2019-05-11T06:17:34.818Z,100808.44
2019-05-11T06:22:38.856Z,100814.38
2019-05-11T06:27:43.214Z,100810.28
2019-05-11T06:32:47.607Z,100805.81
2019-05-11T06:37:51.648Z,100809.86
2019-05-11T06:42:55.684Z,100803.58
2019-05-11T06:47:59.849Z,100802.91
2019-05-11T06:53:03.837Z,100811.28
2019-05-11T06:58:08.318Z,100813.00
2019-05-11T07:03:12.320Z,100815.55
2019-05-11T07:08:16.369Z,100811.43
2019-05-11T07:13:20.813Z,100795.13
2019-05-11T07:18:25.127Z,100788.57
2019-05-11T07:23:29.197Z,100795.70
2019-05-11T07:28:33.599Z,100793.52
2019-05-11T07:33:38.016Z,100783.58
2019-05-11T07:38:42.510Z,100796.54
2019-05-11T07:43:48.476Z,100793.21
2019-05-11T07:48:52.710Z,100786.77
2019-05-11T07:53:57.827Z,100793.28
2019-05-11T07:59:02.055Z,100784.55
2019-05-11T08:04:07.831Z,100782.08
2019-05-11T08:09:12.022Z,100788.83
2019-05-11T08:14:18.203Z,100781.70
2019-05-11T08:19:21.836Z,100778.90
2019-05-11T08:24:28.272Z,100780.63
2019-05-11T08:29:32.226Z,100774.09
2019-05-11T08:34:36.263Z,100779.49
2019-05-11T08:39:40.321Z,100781.62
2019-05-11T08:44:44.334Z,100790.80
2019-05-11T08:49:48.615Z,100785.14
2019-05-11T08:54:52.562Z,100778.95
2019-05-11T08:59:57.867Z,100779.20
2019-05-11T09:05:02.276Z,100782.59
2019-05-11T09:10:09.670Z,100772.02
2019-05-11T09:15:29.944Z,100774.34
2019-05-11T09:20:20.095Z,100780.13
2019-05-11T09:25:24.182Z,100781.33
2019-05-11T09:30:28.924Z,100777.30
2019-05-11T09:35:46.764Z,100780.70
2019-05-11T09:40:38.800Z,100775.39
2019-05-11T09:45:48.322Z,100775.59
2019-05-11T09:50:48.560Z,100772.08
2019-05-11T09:55:53.129Z,100773.55
2019-05-11T10:00:58.580Z,100763.59
2019-05-11T10:06:02.883Z,100760.34
2019-05-11T10:11:08.399Z,100766.52
2019-05-11T10:16:12.707Z,100761.77
2019-05-11T10:21:18.798Z,100764.19
2019-05-11T10:26:22.745Z,100762.31
2019-05-11T10:31:28.464Z,100765.02
2019-05-11T10:36:33.088Z,100768.44
2019-05-11T10:41:38.711Z,100761.40
2019-05-11T10:46:43.172Z,100766.58
2019-05-11T10:51:48.623Z,100761.78
2019-05-11T10:56:52.839Z,100761.58
2019-05-11T11:01:58.992Z,100756.77
2019-05-11T11:07:02.679Z,100756.49
2019-05-11T11:12:08.309Z,100767.30
2019-05-11T11:17:12.639Z,100767.70
2019-05-11T11:22:35.027Z,100755.05
2019-05-11T11:27:22.517Z,100765.91
2019-05-11T11:32:27.937Z,100765.25
2019-05-11T11:37:32.175Z,100770.30
2019-05-11T11:42:37.738Z,100772.26
2019-05-11T11:47:41.944Z,100758.31
2019-05-11T11:52:47.686Z,100765.50
2019-05-11T11:57:52.017Z,100762.32
2019-05-11T12:02:58.015Z,100772.59
2019-05-11T12:08:01.752Z,100779.46
2019-05-11T12:13:05.859Z,100780.06
2019-05-11T12:18:09.899Z,100782.20
2019-05-11T12:23:13.934Z,100781.38
2019-05-11T12:28:18.512Z,100785.47
2019-05-11T12:33:22.780Z,100781.31
2019-05-11T12:38:27.670Z,100781.58
2019-05-11T12:43:32.122Z,100771.64
2019-05-11T12:48:42.365Z,100769.27
2019-05-11T12:53:47.643Z,100776.34
2019-05-11T12:58:52.043Z,100782.04
2019-05-11T13:03:58.062Z,100786.99
2019-05-11T13:09:02.137Z,100786.37
2019-05-11T13:14:08.014Z,100789.84
2019-05-11T13:19:12.390Z,100787.11
2019-05-11T13:24:18.561Z,100786.33
2019-05-11T13:29:22.623Z,100787.78
2019-05-11T13:34:31.052Z,100790.02
2019-05-11T13:39:32.626Z,100794.32
2019-05-11T13:44:38.434Z,100791.72
2019-05-11T13:49:42.578Z,100799.06
2019-05-11T13:54:48.249Z,100809.80
2019-05-11T13:59:52.765Z,100808.98
2019-05-11T14:04:58.450Z,100818.09
2019-05-11T14:10:03.549Z,100814.80
2019-05-11T14:15:08.618Z,100828.09
2019-05-11T14:20:13.094Z,100835.20
2019-05-11T14:25:18.546Z,100836.87
2019-05-11T14:30:22.892Z,100850.41
2019-05-11T14:35:28.015Z,100862.67
2019-05-11T14:40:32.125Z,100867.66
2019-05-11T14:45:38.102Z,100867.42
2019-05-11T14:50:41.879Z,100864.09
2019-05-11T14:55:45.923Z,100870.89
2019-05-11T15:00:50.085Z,100884.97
2019-05-11T15:05:54.412Z,100878.86
2019-05-11T15:10:58.735Z,100893.10
2019-05-11T15:16:04.794Z,100896.89
2019-05-11T15:21:09.125Z,100907.16
2019-05-11T15:26:13.671Z,100914.14
2019-05-11T15:31:22.053Z,100927.41
2019-05-11T15:36:23.509Z,100930.90
2019-05-11T15:41:28.259Z,100928.72
2019-05-11T15:46:32.512Z,100930.41
2019-05-11T15:51:41.191Z,100936.54
2019-05-11T15:56:45.086Z,100939.61
2019-05-11T16:01:49.212Z,100958.30
2019-05-11T16:06:53.283Z,100971.73
2019-05-11T16:11:57.898Z,100958.80
2019-05-11T16:17:02.031Z,100953.42
2019-05-11T16:22:09.879Z,100948.08
2019-05-11T16:27:11.909Z,100956.81
2019-05-11T16:32:16.054Z,100961.01
2019-05-11T16:37:20.316Z,100959.77
2019-05-11T16:42:24.521Z,100961.98
2019-05-11T16:47:29.529Z,100961.52
2019-05-11T16:52:34.127Z,100989.72
2019-05-11T16:57:38.450Z,100997.52
2019-05-11T17:02:42.585Z,101010.52
2019-05-11T17:07:48.309Z,101007.45
2019-05-11T17:12:52.668Z,101000.14
2019-05-11T17:17:58.731Z,100988.06
2019-05-11T17:23:02.539Z,101001.55
2019-05-11T17:28:09.685Z,101038.16
2019-05-11T17:33:12.395Z,101063.69
2019-05-11T17:38:18.368Z,101092.20
2019-05-11T17:43:22.173Z,101090.87
2019-05-11T17:48:28.187Z,101072.27
2019-05-11T17:53:32.305Z,101076.12
2019-05-11T17:58:37.921Z,101085.52
2019-05-11T18:03:42.144Z,101094.72
2019-05-11T18:08:47.907Z,101102.77
2019-05-11T18:13:52.037Z,101110.96
2019-05-11T18:18:56.091Z,101107.44
2019-05-11T18:24:00.121Z,101114.48
2019-05-11T18:29:04.305Z,101127.54
2019-05-11T18:34:08.966Z,101130.03
2019-05-11T18:39:22.086Z,101142.78
2019-05-11T18:44:26.101Z,101152.16
2019-05-11T18:49:34.604Z,101149.75
2019-05-11T18:54:39.104Z,101154.27
2019-05-11T18:59:45.309Z,101168.34
2019-05-11T19:04:49.855Z,101170.53
2019-05-11T19:09:53.905Z,101199.78
2019-05-11T19:14:58.753Z,101223.68
2019-05-11T19:20:03.244Z,101232.75
2019-05-11T19:25:08.986Z,101239.81
2019-05-11T19:30:14.603Z,101250.31
2019-05-11T19:35:20.949Z,101245.97
2019-05-11T19:40:37.954Z,101256.31
2019-05-11T19:45:42.392Z,101260.17
2019-05-11T19:51:02.670Z,101266.83
2019-05-11T19:55:52.681Z,101285.22
2019-05-11T20:00:58.439Z,101288.22
2019-05-11T20:06:03.191Z,101290.72
2019-05-11T20:11:08.278Z,101289.36
2019-05-11T20:16:15.486Z,101291.69
2019-05-11T20:21:38.385Z,101300.00
2019-05-11T20:26:42.579Z,101298.28
2019-05-11T20:31:46.644Z,101307.50
2019-05-11T20:36:50.906Z,101321.01
2019-05-11T20:41:55.215Z,101319.61
2019-05-11T20:46:59.693Z,101333.77
2019-05-11T20:52:08.692Z,101344.94
2019-05-11T20:57:13.362Z,101366.63
2019-05-11T21:02:18.385Z,101382.23
2019-05-11T21:07:22.738Z,101382.23
2019-05-11T21:12:28.813Z,101391.55
2019-05-11T21:17:33.513Z,101396.69
2019-05-11T21:22:40.137Z,101408.90
2019-05-11T21:27:43.753Z,101420.68
2019-05-11T21:32:47.942Z,101422.16
2019-05-11T21:37:52.008Z,101427.23
2019-05-11T21:42:58.035Z,101439.17
2019-05-11T21:48:01.732Z,101453.27
2019-05-11T21:53:08.101Z,101459.91
2019-05-11T21:58:11.481Z,101465.97
2019-05-11T22:03:15.514Z,101467.48
2019-05-11T22:08:19.604Z,101475.71
2019-05-11T22:13:23.675Z,101482.89
2019-05-11T22:18:31.277Z,101490.92
2019-05-11T22:23:33.925Z,101490.92
2019-05-11T22:28:38.917Z,101499.16
2019-05-11T22:33:43.189Z,101507.59
2019-05-11T22:38:48.288Z,101514.13
2019-05-11T22:43:52.478Z,101524.11
2019-05-11T22:48:58.292Z,101532.98
2019-05-11T22:54:02.461Z,101536.66
2019-05-11T22:59:08.308Z,101531.94
2019-05-11T23:04:12.211Z,101541.42
2019-05-11T23:09:18.302Z,101546.93
2019-05-11T23:14:21.968Z,101561.39
2019-05-11T23:19:27.862Z,101557.45
2019-05-11T23:24:31.770Z,101577.91
2019-05-11T23:29:38.230Z,101584.10
2019-05-11T23:34:41.915Z,101584.17
2019-05-11T23:39:47.968Z,101586.00
2019-05-11T23:44:52.121Z,101586.29
2019-05-11T23:49:58.160Z,101591.56
2019-05-11T23:55:01.966Z,101582.02
